Hovedside
METAR-TAF:

METAR-TAF

Lufthavner :

Oslo lufthavn (Gardermoen)

Oslo, Norge

breddegrad: 60-12N, lengdegrad: 011-05E, høyde over havet: 208 m

Gjeldene værobservasjon

Denne rapporten ble laget for 28 minutter siden, klokken 18:20 UTC
Vind 4 kt fra Nordøst, skiftende mellom Nord og Øst
Temperatur -2°C
Luftfuktighet 80%
Trykk 1038 hPa
Sikt 10 km eller mer
Overskyet i en høyde av 1300 ft

METAR: ENGM 191820Z 04004KT 360V100 9999 OVC013 M02/M05 Q1038 NOSIG

Tid: 19:48 (18:48 UTC)

Varsel

Varsel gyldig fra 19. klokken 18 UTC til 20. klokken 18 UTC
Vind 5 kt fra Nord-nordøst
Sikt 10 km eller mer
Overskyet i en høyde av 1200 ft
Sannsynlighet 30%
fra 19. klokken 18 UTC til 20. klokken 09 UTC
Brutte skyer i en høyde av 800 ft
Blir
fra 20. klokken 09 UTC til 20. klokken 11 UTC
Spredte skyer i en høyde av 1500 ft

TAF: ENGM 1918/2018 02005KT 9999 OVC012 PROB30 1918/2009 BKN008 BECMG 2009/2011 SCT015

Værobservasjoner og værvarsel for over 4000 flyplasser (METAR- og TAF-rapporter).

Tilgjengelige stasjoner er representert av de røde og gule prikkene på kartet.

Hold musepekeren over prikken for å se navnet på stasjonen.

Klikk så for å se værobservasjoner og -varsler.

For å forandre kartet kan du klikke på den grønne knappen med svart kryss for å zoome inn, på den grønne knappen med strek for å zoome ut, eller på de grønne pilene for å se tilstøtende kart.


METAR-TAF: